Airfield :
LOGIN :

Register | Disclaimer

   EN    FR    IT 

 










Legend :    VFR   Marginal VFR   IFR   Intensive IFR   Very Intensive IFR
Visi :
Ceiling :
>= 8 km
>= 3000ft
5 to 8 km
1000 to 3000 ft
1500m to 5 km
500 to 1000 ft
800 to 1500m
200 to 500 ft
< 800m
< 200 ft
Symbols :   Thunderstorms  Fog  Heavy snow  Heavy precipitations  Wind > 20 kt
SIGMETs :     Misc.  Thunderstorms  Icing  Turbulence  Mountain Waves  Volcanic Ashes






- Airport Elevation : 525 ft
- IATA code : VAF


LFLU - Valence

CURRENT METAR :
  • 161230Z AUTO 21025KT 9999 SCT056 14/10 Q1010

EXPIRED METARs :
  • 161200Z AUTO 21023KT 9999 FEW060 14/10 Q1010
  • 161130Z AUTO 21022KT 9999 FEW060 14/09 Q1011
  • 161100Z AUTO 22022KT 9999 BKN066 BKN240 14/09 Q1011
  • 161030Z AUTO 21023KT 9999 BKN060 13/09 Q1011
  • 161000Z AUTO 21020KT 9999 OVC058 13/09 Q1011

TAF N/A



MET'MAP, your aeronautical weather chart ! - Copyright ORBIFLY December 2007 - Disclaimer

ORBIFLY MET'MAP TEAM :

Programming & Development : Alexandra Zaïnal
Concept & original design : Baudouin d'Aumeries
Assistance for programming : Marc-Olivier Méhu
Technical & hardware support : Manuel Goepfert

Contact : metmap@orbifly.com




SOURCES & CREDITS :

   NOAA